Newport, ME (04953)

9:48 PM EST on February 11, 2016 (GMT -0500)
Downtown Newport | | Change Station
CLOSE
Current Station
Personal Weather Station
Location: Newport, ME
Elevation: 227 ft
Nearby Weather Stations
Active Advisory: Winter Storm Watch Active Notice: Local Storm Report

Elev 227 ft 44.84 °N, 69.28 °W | Updated 0 second ago

Clear
Clear
4.6 °F
Feels Like -8 °F
N
7.0
Wind Variable Wind from NW
Gusts 10.0 mph

Today
High -- | Low -- °F
--% Chance of Precip.
Yesterday
High -- | Low -- °F
Precip. -- in
Pressure 29.79 in
Visibility 10.0 miles
Clouds Clear
Windchill -8 °F
Dew Point 8 °F
Humidity 100%
Rainfall 0.02 in
Snow Depth Not available.
6:44 AM 4:58 PM
Waxing Crescent, 16% visible
METAR KBGR 120153Z 31012KT 10SM CLR M11/M16 A2978 RMK AO2 SLP088 T11061161
Pressure 29.79 in
Visibility 10.0 miles
Clouds Clear
Windchill -8 °F
Dew Point 8 °F
Humidity 100%
Rainfall 0.02 in
Snow Depth Not available.
6:44 AM 4:58 PM
Waxing Crescent, 16% visible
METAR KBGR 120153Z 31012KT 10SM CLR M11/M16 A2978 RMK AO2 SLP088 T11061161

10-Day Weather Forecast

Almanac

Astronomy

Feb. 11, 2016 Rise Set
Actual Time
Civil Twilight
Nautical Twilight
Astronomical Twilight
Moon
Length of Visible Light
Length of Day
Tomorrow will be .
, % of the Moon is Illuminated

Today's Extremes

State Highs State Lows

Community

WunderPhotos

Upload Photos

1,892,226 photos uploaded!

WunderBlog® & News

Nearby

Air Quality

  Air Quality AQ Index Pollutant
Not available.

Snow Depth

Station Depth Elevation

Earthquake Activity

City Distance Mag. Time & Date
Minimum magnitude displayed is 2.5.

Coastal Water Temperatures

Place Temperature

Stations

Nearby Weather Stations

Station Location Temp. Windchill Dew Point Humidity Wind Precip. Elev Updated Type
                   

Watches & Warnings

Winter Storm Watch
Issued: 3:18 PM EST Feb. 11, 2016 – National Weather Service

... Winter Storm Watch in effect from late Friday night through
late Saturday night...

The National Weather Service in Caribou has issued a Winter Storm
Watch... which is in effect from late Friday night through late
Saturday night.

* Locations... Hancock and southern Penobscot County.

* Hazard types... snow and blowing snow.

* Accumulations... possible snow accumulation of 6 to 14 inches.
Totals will vary significantly over short distances.

* Timing... late Friday night to Saturday night.

* Impacts... moderate impact. Locally heavy snowfall and areas of
blowing snow will result in difficult driving conditions.

* Winds... northeast 10 to 20 mph with gusts up to 35 mph.

* Temperatures... 5 to 20 above.

* Visibilities... one half mile or less at times.

Precautionary/preparedness actions...

A Winter Storm Watch means there is a potential for significant
snow... sleet... or ice accumulations that may impact travel.
Continue to monitor the latest forecasts.